sensor_id;sensor_type;location;lat;lon;timestamp;P1;durP1;ratioP1;P2;durP2;ratioP2
6105;SDS011;3083;51.508;7.966;2022-10-16T00:01:40;9.97;;;7.47;;
6105;SDS011;3083;51.508;7.966;2022-10-16T00:04:08;6.73;;;5.23;;
6105;SDS011;3083;51.508;7.966;2022-10-16T00:06:35;9.67;;;5.67;;
6105;SDS011;3083;51.508;7.966;2022-10-16T00:09:02;8.70;;;5.37;;
6105;SDS011;3083;51.508;7.966;2022-10-16T00:11:31;9.30;;;5.50;;
6105;SDS011;3083;51.508;7.966;2022-10-16T00:14:02;8.30;;;5.67;;
6105;SDS011;3083;51.508;7.966;2022-10-16T00:16:30;12.50;;;6.13;;
6105;SDS011;3083;51.508;7.966;2022-10-16T00:18:57;10.10;;;7.40;;
6105;SDS011;3083;51.508;7.966;2022-10-16T00:21:25;10.37;;;6.70;;
6105;SDS011;3083;51.508;7.966;2022-10-16T00:23:55;9.83;;;7.03;;
6105;SDS011;3083;51.508;7.966;2022-10-16T00:26:24;8.50;;;6.30;;
6105;SDS011;3083;51.508;7.966;2022-10-16T00:28:53;8.80;;;5.60;;
6105;SDS011;3083;51.508;7.966;2022-10-16T00:31:21;10.00;;;7.13;;
6105;SDS011;3083;51.508;7.966;2022-10-16T00:33:49;12.57;;;7.43;;
6105;SDS011;3083;51.508;7.966;2022-10-16T00:36:17;11.40;;;6.70;;
6105;SDS011;3083;51.508;7.966;2022-10-16T00:38:45;9.53;;;5.30;;
6105;SDS011;3083;51.508;7.966;2022-10-16T00:41:14;5.60;;;4.33;;
6105;SDS011;3083;51.508;7.966;2022-10-16T00:43:43;8.30;;;5.23;;
6105;SDS011;3083;51.508;7.966;2022-10-16T00:46:15;9.70;;;5.10;;
6105;SDS011;3083;51.508;7.966;2022-10-16T00:48:45;7.67;;;3.93;;
6105;SDS011;3083;51.508;7.966;2022-10-16T00:51:14;7.33;;;4.43;;
6105;SDS011;3083;51.508;7.966;2022-10-16T00:53:43;9.17;;;5.27;;
6105;SDS011;3083;51.508;7.966;2022-10-16T00:56:11;8.23;;;5.20;;
6105;SDS011;3083;51.508;7.966;2022-10-16T00:58:37;6.20;;;4.93;;
6105;SDS011;3083;51.508;7.966;2022-10-16T01:01:05;6.50;;;4.60;;
6105;SDS011;3083;51.508;7.966;2022-10-16T01:03:34;8.23;;;4.70;;
6105;SDS011;3083;51.508;7.966;2022-10-16T01:06:05;8.47;;;5.03;;
6105;SDS011;3083;51.508;7.966;2022-10-16T01:08:43;6.37;;;4.80;;
6105;SDS011;3083;51.508;7.966;2022-10-16T01:11:17;5.90;;;3.50;;
6105;SDS011;3083;51.508;7.966;2022-10-16T01:13:50;12.53;;;3.57;;
6105;SDS011;3083;51.508;7.966;2022-10-16T01:16:22;7.80;;;3.93;;
6105;SDS011;3083;51.508;7.966;2022-10-16T01:18:58;8.17;;;5.50;;
6105;SDS011;3083;51.508;7.966;2022-10-16T01:21:29;9.57;;;6.27;;
6105;SDS011;3083;51.508;7.966;2022-10-16T01:24:02;14.30;;;5.20;;
6105;SDS011;3083;51.508;7.966;2022-10-16T01:26:42;13.07;;;5.17;;
6105;SDS011;3083;51.508;7.966;2022-10-16T01:29:20;7.73;;;4.77;;
6105;SDS011;3083;51.508;7.966;2022-10-16T01:31:53;7.30;;;4.03;;
6105;SDS011;3083;51.508;7.966;2022-10-16T01:34:25;7.00;;;4.60;;
6105;SDS011;3083;51.508;7.966;2022-10-16T01:37:00;9.30;;;4.43;;
6105;SDS011;3083;51.508;7.966;2022-10-16T01:39:32;8.83;;;4.83;;
6105;SDS011;3083;51.508;7.966;2022-10-16T01:42:05;10.33;;;5.80;;
6105;SDS011;3083;51.508;7.966;2022-10-16T01:44:35;7.10;;;4.80;;
6105;SDS011;3083;51.508;7.966;2022-10-16T01:47:05;8.60;;;4.93;;
6105;SDS011;3083;51.508;7.966;2022-10-16T01:49:36;8.00;;;4.83;;
6105;SDS011;3083;51.508;7.966;2022-10-16T01:52:06;6.00;;;4.43;;
6105;SDS011;3083;51.508;7.966;2022-10-16T01:54:37;6.63;;;4.83;;
6105;SDS011;3083;51.508;7.966;2022-10-16T01:57:07;4.80;;;3.73;;
6105;SDS011;3083;51.508;7.966;2022-10-16T01:59:38;5.97;;;3.90;;
6105;SDS011;3083;51.508;7.966;2022-10-16T02:02:08;7.73;;;3.70;;
6105;SDS011;3083;51.508;7.966;2022-10-16T02:04:38;6.30;;;4.20;;
6105;SDS011;3083;51.508;7.966;2022-10-16T02:07:08;6.77;;;4.40;;
6105;SDS011;3083;51.508;7.966;2022-10-16T02:09:36;6.60;;;3.77;;
6105;SDS011;3083;51.508;7.966;2022-10-16T02:12:06;5.90;;;3.57;;
6105;SDS011;3083;51.508;7.966;2022-10-16T02:14:41;7.13;;;4.40;;
6105;SDS011;3083;51.508;7.966;2022-10-16T02:17:12;5.87;;;3.70;;
6105;SDS011;3083;51.508;7.966;2022-10-16T02:19:40;6.27;;;3.47;;
6105;SDS011;3083;51.508;7.966;2022-10-16T02:22:08;6.20;;;3.47;;
6105;SDS011;3083;51.508;7.966;2022-10-16T02:24:43;6.00;;;3.70;;
6105;SDS011;3083;51.508;7.966;2022-10-16T02:27:18;5.03;;;3.37;;
6105;SDS011;3083;51.508;7.966;2022-10-16T02:29:51;8.70;;;3.87;;
6105;SDS011;3083;51.508;7.966;2022-10-16T02:32:24;6.53;;;3.87;;
6105;SDS011;3083;51.508;7.966;2022-10-16T02:34:56;8.60;;;3.40;;
6105;SDS011;3083;51.508;7.966;2022-10-16T02:37:25;7.00;;;3.20;;
6105;SDS011;3083;51.508;7.966;2022-10-16T02:39:54;6.83;;;3.00;;
6105;SDS011;3083;51.508;7.966;2022-10-16T02:42:27;4.73;;;2.93;;
6105;SDS011;3083;51.508;7.966;2022-10-16T02:44:56;5.67;;;3.00;;
6105;SDS011;3083;51.508;7.966;2022-10-16T02:47:24;7.37;;;3.07;;
6105;SDS011;3083;51.508;7.966;2022-10-16T02:49:51;5.83;;;3.03;;
6105;SDS011;3083;51.508;7.966;2022-10-16T02:52:18;3.80;;;2.70;;
6105;SDS011;3083;51.508;7.966;2022-10-16T02:54:45;5.73;;;2.83;;
6105;SDS011;3083;51.508;7.966;2022-10-16T02:57:11;5.93;;;3.10;;
6105;SDS011;3083;51.508;7.966;2022-10-16T02:59:38;5.80;;;3.23;;
6105;SDS011;3083;51.508;7.966;2022-10-16T03:02:07;4.10;;;2.30;;
6105;SDS011;3083;51.508;7.966;2022-10-16T03:04:34;6.00;;;3.10;;
6105;SDS011;3083;51.508;7.966;2022-10-16T03:07:01;5.10;;;2.90;;
6105;SDS011;3083;51.508;7.966;2022-10-16T03:09:28;5.43;;;3.30;;
6105;SDS011;3083;51.508;7.966;2022-10-16T03:11:55;5.50;;;3.10;;
6105;SDS011;3083;51.508;7.966;2022-10-16T03:14:22;8.53;;;3.43;;
6105;SDS011;3083;51.508;7.966;2022-10-16T03:16:49;4.00;;;2.93;;
6105;SDS011;3083;51.508;7.966;2022-10-16T03:19:17;4.60;;;2.77;;
6105;SDS011;3083;51.508;7.966;2022-10-16T03:21:44;5.00;;;3.00;;
6105;SDS011;3083;51.508;7.966;2022-10-16T03:24:11;5.13;;;2.90;;
6105;SDS011;3083;51.508;7.966;2022-10-16T03:26:38;6.40;;;3.53;;
6105;SDS011;3083;51.508;7.966;2022-10-16T03:29:05;5.17;;;3.20;;
6105;SDS011;3083;51.508;7.966;2022-10-16T03:31:32;4.10;;;2.80;;
6105;SDS011;3083;51.508;7.966;2022-10-16T03:33:59;5.37;;;3.00;;
6105;SDS011;3083;51.508;7.966;2022-10-16T03:36:27;7.33;;;4.53;;
6105;SDS011;3083;51.508;7.966;2022-10-16T03:38:54;4.80;;;3.40;;
6105;SDS011;3083;51.508;7.966;2022-10-16T03:41:21;4.50;;;3.40;;
6105;SDS011;3083;51.508;7.966;2022-10-16T03:43:48;5.90;;;3.30;;
6105;SDS011;3083;51.508;7.966;2022-10-16T03:46:15;4.53;;;3.37;;
6105;SDS011;3083;51.508;7.966;2022-10-16T03:48:42;5.33;;;3.10;;
6105;SDS011;3083;51.508;7.966;2022-10-16T03:51:09;8.30;;;3.17;;
6105;SDS011;3083;51.508;7.966;2022-10-16T03:53:37;4.23;;;3.07;;
6105;SDS011;3083;51.508;7.966;2022-10-16T03:56:04;6.27;;;3.43;;
6105;SDS011;3083;51.508;7.966;2022-10-16T03:58:31;6.57;;;3.97;;
6105;SDS011;3083;51.508;7.966;2022-10-16T04:00:58;4.43;;;3.30;;
6105;SDS011;3083;51.508;7.966;2022-10-16T04:03:25;6.53;;;3.40;;
6105;SDS011;3083;51.508;7.966;2022-10-16T04:05:52;4.90;;;3.13;;
6105;SDS011;3083;51.508;7.966;2022-10-16T04:08:19;4.53;;;3.40;;
6105;SDS011;3083;51.508;7.966;2022-10-16T04:10:47;4.33;;;3.60;;
6105;SDS011;3083;51.508;7.966;2022-10-16T04:13:14;8.20;;;3.47;;
6105;SDS011;3083;51.508;7.966;2022-10-16T04:15:42;5.40;;;3.53;;
6105;SDS011;3083;51.508;7.966;2022-10-16T04:18:10;5.17;;;3.10;;
6105;SDS011;3083;51.508;7.966;2022-10-16T04:20:37;3.70;;;2.77;;
6105;SDS011;3083;51.508;7.966;2022-10-16T04:23:04;5.77;;;2.50;;
6105;SDS011;3083;51.508;7.966;2022-10-16T04:25:31;4.57;;;2.70;;
6105;SDS011;3083;51.508;7.966;2022-10-16T04:27:59;4.60;;;3.07;;
6105;SDS011;3083;51.508;7.966;2022-10-16T04:30:26;6.80;;;3.00;;
6105;SDS011;3083;51.508;7.966;2022-10-16T04:32:53;3.80;;;2.80;;
6105;SDS011;3083;51.508;7.966;2022-10-16T04:35:20;5.03;;;2.80;;
6105;SDS011;3083;51.508;7.966;2022-10-16T04:37:48;4.90;;;3.83;;
6105;SDS011;3083;51.508;7.966;2022-10-16T04:40:15;5.83;;;3.30;;
6105;SDS011;3083;51.508;7.966;2022-10-16T04:42:43;3.90;;;3.03;;
6105;SDS011;3083;51.508;7.966;2022-10-16T04:45:11;4.77;;;3.23;;
6105;SDS011;3083;51.508;7.966;2022-10-16T04:47:38;5.33;;;3.20;;
6105;SDS011;3083;51.508;7.966;2022-10-16T04:50:05;4.37;;;3.10;;
6105;SDS011;3083;51.508;7.966;2022-10-16T04:52:32;9.00;;;3.00;;
6105;SDS011;3083;51.508;7.966;2022-10-16T04:55:00;3.60;;;3.07;;
6105;SDS011;3083;51.508;7.966;2022-10-16T04:57:28;5.93;;;3.63;;
6105;SDS011;3083;51.508;7.966;2022-10-16T04:59:55;4.07;;;2.90;;
6105;SDS011;3083;51.508;7.966;2022-10-16T05:02:23;4.83;;;3.23;;
6105;SDS011;3083;51.508;7.966;2022-10-16T05:04:51;3.83;;;2.87;;
6105;SDS011;3083;51.508;7.966;2022-10-16T05:07:18;5.27;;;2.77;;
6105;SDS011;3083;51.508;7.966;2022-10-16T05:09:45;4.97;;;2.87;;
6105;SDS011;3083;51.508;7.966;2022-10-16T05:12:12;6.13;;;3.20;;
6105;SDS011;3083;51.508;7.966;2022-10-16T05:14:38;3.80;;;2.70;;
6105;SDS011;3083;51.508;7.966;2022-10-16T05:17:05;7.73;;;2.83;;
6105;SDS011;3083;51.508;7.966;2022-10-16T05:19:34;4.10;;;2.33;;
6105;SDS011;3083;51.508;7.966;2022-10-16T05:22:00;4.20;;;2.90;;
6105;SDS011;3083;51.508;7.966;2022-10-16T05:24:28;4.03;;;2.70;;
6105;SDS011;3083;51.508;7.966;2022-10-16T05:26:55;4.27;;;2.63;;
6105;SDS011;3083;51.508;7.966;2022-10-16T05:29:22;3.73;;;3.10;;
6105;SDS011;3083;51.508;7.966;2022-10-16T05:31:50;4.13;;;2.70;;
6105;SDS011;3083;51.508;7.966;2022-10-16T05:34:17;3.83;;;2.47;;
6105;SDS011;3083;51.508;7.966;2022-10-16T05:36:46;5.90;;;2.67;;
6105;SDS011;3083;51.508;7.966;2022-10-16T05:39:13;3.83;;;2.77;;
6105;SDS011;3083;51.508;7.966;2022-10-16T05:41:41;5.10;;;2.80;;
6105;SDS011;3083;51.508;7.966;2022-10-16T05:44:08;4.73;;;2.53;;
6105;SDS011;3083;51.508;7.966;2022-10-16T05:46:35;3.70;;;2.80;;
6105;SDS011;3083;51.508;7.966;2022-10-16T05:49:02;4.17;;;2.70;;
6105;SDS011;3083;51.508;7.966;2022-10-16T05:51:29;5.90;;;2.80;;
6105;SDS011;3083;51.508;7.966;2022-10-16T05:53:57;3.13;;;2.40;;
6105;SDS011;3083;51.508;7.966;2022-10-16T05:56:24;3.33;;;2.70;;
6105;SDS011;3083;51.508;7.966;2022-10-16T05:58:51;3.80;;;2.53;;
6105;SDS011;3083;51.508;7.966;2022-10-16T06:01:19;3.73;;;2.20;;
6105;SDS011;3083;51.508;7.966;2022-10-16T06:03:49;3.60;;;2.77;;
6105;SDS011;3083;51.508;7.966;2022-10-16T06:06:17;5.97;;;2.90;;
6105;SDS011;3083;51.508;7.966;2022-10-16T06:08:46;3.37;;;2.50;;
6105;SDS011;3083;51.508;7.966;2022-10-16T06:11:15;4.37;;;2.57;;
6105;SDS011;3083;51.508;7.966;2022-10-16T06:13:43;4.20;;;2.50;;
6105;SDS011;3083;51.508;7.966;2022-10-16T06:16:11;3.90;;;2.70;;
6105;SDS011;3083;51.508;7.966;2022-10-16T06:18:39;4.37;;;2.70;;
6105;SDS011;3083;51.508;7.966;2022-10-16T06:21:09;3.30;;;2.40;;
6105;SDS011;3083;51.508;7.966;2022-10-16T06:23:37;3.77;;;2.60;;
6105;SDS011;3083;51.508;7.966;2022-10-16T06:26:05;4.00;;;2.47;;
6105;SDS011;3083;51.508;7.966;2022-10-16T06:28:34;5.40;;;2.80;;
6105;SDS011;3083;51.508;7.966;2022-10-16T06:31:02;4.40;;;2.67;;
6105;SDS011;3083;51.508;7.966;2022-10-16T06:33:30;3.47;;;2.70;;
6105;SDS011;3083;51.508;7.966;2022-10-16T06:36:00;4.87;;;2.50;;
6105;SDS011;3083;51.508;7.966;2022-10-16T06:38:28;5.17;;;2.10;;
6105;SDS011;3083;51.508;7.966;2022-10-16T06:40:55;3.40;;;2.33;;
6105;SDS011;3083;51.508;7.966;2022-10-16T06:43:22;4.23;;;2.37;;
6105;SDS011;3083;51.508;7.966;2022-10-16T06:45:54;3.50;;;2.53;;
6105;SDS011;3083;51.508;7.966;2022-10-16T06:48:22;3.20;;;2.07;;
6105;SDS011;3083;51.508;7.966;2022-10-16T06:50:55;3.40;;;2.30;;
6105;SDS011;3083;51.508;7.966;2022-10-16T06:53:23;3.30;;;2.60;;
6105;SDS011;3083;51.508;7.966;2022-10-16T06:55:51;3.80;;;2.40;;
6105;SDS011;3083;51.508;7.966;2022-10-16T06:58:18;3.27;;;2.43;;
6105;SDS011;3083;51.508;7.966;2022-10-16T07:00:45;4.87;;;2.40;;
6105;SDS011;3083;51.508;7.966;2022-10-16T07:03:14;3.17;;;2.10;;
6105;SDS011;3083;51.508;7.966;2022-10-16T07:05:41;2.90;;;2.10;;
6105;SDS011;3083;51.508;7.966;2022-10-16T07:08:09;5.20;;;2.37;;
6105;SDS011;3083;51.508;7.966;2022-10-16T07:10:36;5.20;;;2.50;;
6105;SDS011;3083;51.508;7.966;2022-10-16T07:13:03;9.03;;;2.20;;
6105;SDS011;3083;51.508;7.966;2022-10-16T07:15:30;3.53;;;2.10;;
6105;SDS011;3083;51.508;7.966;2022-10-16T07:17:57;3.20;;;2.10;;
6105;SDS011;3083;51.508;7.966;2022-10-16T07:20:25;3.30;;;2.30;;
6105;SDS011;3083;51.508;7.966;2022-10-16T07:22:52;2.90;;;1.97;;
6105;SDS011;3083;51.508;7.966;2022-10-16T07:25:19;3.17;;;2.20;;
6105;SDS011;3083;51.508;7.966;2022-10-16T07:27:46;3.33;;;1.87;;
6105;SDS011;3083;51.508;7.966;2022-10-16T07:30:13;2.80;;;1.80;;
6105;SDS011;3083;51.508;7.966;2022-10-16T07:32:40;3.40;;;2.10;;
6105;SDS011;3083;51.508;7.966;2022-10-16T07:35:08;4.30;;;2.00;;
6105;SDS011;3083;51.508;7.966;2022-10-16T07:37:36;4.00;;;1.90;;
6105;SDS011;3083;51.508;7.966;2022-10-16T07:40:03;3.40;;;1.83;;
6105;SDS011;3083;51.508;7.966;2022-10-16T07:42:31;3.13;;;1.97;;
6105;SDS011;3083;51.508;7.966;2022-10-16T07:44:58;3.50;;;1.80;;
6105;SDS011;3083;51.508;7.966;2022-10-16T07:47:26;3.03;;;1.70;;
6105;SDS011;3083;51.508;7.966;2022-10-16T07:49:53;3.03;;;1.60;;
6105;SDS011;3083;51.508;7.966;2022-10-16T07:52:20;2.93;;;1.90;;
6105;SDS011;3083;51.508;7.966;2022-10-16T07:54:48;9.60;;;2.00;;
6105;SDS011;3083;51.508;7.966;2022-10-16T07:57:15;3.20;;;2.20;;
6105;SDS011;3083;51.508;7.966;2022-10-16T07:59:44;4.07;;;1.87;;
6105;SDS011;3083;51.508;7.966;2022-10-16T08:02:11;5.67;;;2.07;;
6105;SDS011;3083;51.508;7.966;2022-10-16T08:04:38;5.93;;;1.80;;
6105;SDS011;3083;51.508;7.966;2022-10-16T08:07:06;2.70;;;1.90;;
6105;SDS011;3083;51.508;7.966;2022-10-16T08:09:33;4.40;;;2.03;;
6105;SDS011;3083;51.508;7.966;2022-10-16T08:12:02;3.63;;;2.00;;
6105;SDS011;3083;51.508;7.966;2022-10-16T08:14:30;3.20;;;2.10;;
6105;SDS011;3083;51.508;7.966;2022-10-16T08:16:57;3.40;;;1.90;;
6105;SDS011;3083;51.508;7.966;2022-10-16T08:19:23;4.63;;;1.90;;
6105;SDS011;3083;51.508;7.966;2022-10-16T08:21:50;5.43;;;2.30;;
6105;SDS011;3083;51.508;7.966;2022-10-16T08:24:17;6.43;;;2.20;;
6105;SDS011;3083;51.508;7.966;2022-10-16T08:26:44;3.70;;;2.60;;
6105;SDS011;3083;51.508;7.966;2022-10-16T08:29:14;5.03;;;3.90;;
6105;SDS011;3083;51.508;7.966;2022-10-16T08:31:41;3.60;;;2.67;;
6105;SDS011;3083;51.508;7.966;2022-10-16T08:34:08;3.63;;;3.00;;
6105;SDS011;3083;51.508;7.966;2022-10-16T08:36:35;4.63;;;2.97;;
6105;SDS011;3083;51.508;7.966;2022-10-16T08:39:02;4.40;;;2.87;;
6105;SDS011;3083;51.508;7.966;2022-10-16T08:47:48;3.13;;;2.43;;
6105;SDS011;3083;51.508;7.966;2022-10-16T08:50:18;3.20;;;2.60;;
6105;SDS011;3083;51.508;7.966;2022-10-16T08:52:49;3.23;;;2.40;;
6105;SDS011;3083;51.508;7.966;2022-10-16T08:55:17;4.13;;;2.20;;
6105;SDS011;3083;51.508;7.966;2022-10-16T08:57:58;5.50;;;2.67;;
6105;SDS011;3083;51.508;7.966;2022-10-16T09:00:27;3.60;;;2.60;;
6105;SDS011;3083;51.508;7.966;2022-10-16T09:02:59;5.40;;;2.93;;
6105;SDS011;3083;51.508;7.966;2022-10-16T09:05:42;4.93;;;2.70;;
6105;SDS011;3083;51.508;7.966;2022-10-16T09:08:38;3.57;;;2.50;;
6105;SDS011;3083;51.508;7.966;2022-10-16T09:11:15;6.20;;;2.80;;
6105;SDS011;3083;51.508;7.966;2022-10-16T09:13:51;2.83;;;2.20;;
6105;SDS011;3083;51.508;7.966;2022-10-16T09:16:26;5.80;;;2.30;;
6105;SDS011;3083;51.508;7.966;2022-10-16T09:18:58;5.13;;;2.40;;
6105;SDS011;3083;51.508;7.966;2022-10-16T09:21:31;3.80;;;2.90;;
6105;SDS011;3083;51.508;7.966;2022-10-16T09:24:07;4.70;;;2.27;;
6105;SDS011;3083;51.508;7.966;2022-10-16T09:26:38;4.20;;;2.20;;
6105;SDS011;3083;51.508;7.966;2022-10-16T09:29:05;3.13;;;1.90;;
6105;SDS011;3083;51.508;7.966;2022-10-16T09:31:33;2.60;;;1.80;;
6105;SDS011;3083;51.508;7.966;2022-10-16T09:34:03;5.57;;;2.10;;
6105;SDS011;3083;51.508;7.966;2022-10-16T09:36:35;2.53;;;1.70;;
6105;SDS011;3083;51.508;7.966;2022-10-16T09:39:07;2.90;;;2.07;;
6105;SDS011;3083;51.508;7.966;2022-10-16T09:41:37;3.23;;;1.70;;
6105;SDS011;3083;51.508;7.966;2022-10-16T09:44:06;3.87;;;2.10;;
6105;SDS011;3083;51.508;7.966;2022-10-16T09:46:46;4.27;;;1.47;;
6105;SDS011;3083;51.508;7.966;2022-10-16T09:49:20;6.93;;;1.73;;
6105;SDS011;3083;51.508;7.966;2022-10-16T09:51:48;2.57;;;1.40;;
6105;SDS011;3083;51.508;7.966;2022-10-16T09:54:16;2.87;;;1.57;;
6105;SDS011;3083;51.508;7.966;2022-10-16T09:56:44;8.90;;;2.10;;
6105;SDS011;3083;51.508;7.966;2022-10-16T09:59:17;2.93;;;1.60;;
6105;SDS011;3083;51.508;7.966;2022-10-16T10:01:47;3.33;;;1.50;;
6105;SDS011;3083;51.508;7.966;2022-10-16T10:04:16;5.73;;;1.53;;
6105;SDS011;3083;51.508;7.966;2022-10-16T10:06:44;2.40;;;1.33;;
6105;SDS011;3083;51.508;7.966;2022-10-16T10:09:16;3.00;;;1.30;;
6105;SDS011;3083;51.508;7.966;2022-10-16T10:11:53;3.30;;;1.47;;
6105;SDS011;3083;51.508;7.966;2022-10-16T10:14:22;2.27;;;1.40;;
6105;SDS011;3083;51.508;7.966;2022-10-16T10:17:00;3.00;;;1.30;;
6105;SDS011;3083;51.508;7.966;2022-10-16T10:19:39;4.40;;;1.50;;
6105;SDS011;3083;51.508;7.966;2022-10-16T10:22:18;4.17;;;1.50;;
6105;SDS011;3083;51.508;7.966;2022-10-16T10:24:54;2.33;;;1.10;;
6105;SDS011;3083;51.508;7.966;2022-10-16T10:27:39;2.30;;;1.17;;
6105;SDS011;3083;51.508;7.966;2022-10-16T10:30:17;2.53;;;1.33;;
6105;SDS011;3083;51.508;7.966;2022-10-16T10:32:52;3.60;;;1.40;;
6105;SDS011;3083;51.508;7.966;2022-10-16T10:35:32;4.33;;;1.50;;
6105;SDS011;3083;51.508;7.966;2022-10-16T10:38:12;2.33;;;1.30;;
6105;SDS011;3083;51.508;7.966;2022-10-16T10:40:49;3.30;;;1.40;;
6105;SDS011;3083;51.508;7.966;2022-10-16T10:43:21;2.40;;;1.30;;
6105;SDS011;3083;51.508;7.966;2022-10-16T10:45:58;2.37;;;1.30;;
6105;SDS011;3083;51.508;7.966;2022-10-16T10:48:38;2.97;;;1.30;;
6105;SDS011;3083;51.508;7.966;2022-10-16T10:51:20;3.80;;;1.30;;
6105;SDS011;3083;51.508;7.966;2022-10-16T10:53:53;4.77;;;1.30;;
6105;SDS011;3083;51.508;7.966;2022-10-16T10:56:34;3.37;;;1.20;;
6105;SDS011;3083;51.508;7.966;2022-10-16T10:59:14;4.17;;;1.40;;
6105;SDS011;3083;51.508;7.966;2022-10-16T11:01:59;3.07;;;1.33;;
6105;SDS011;3083;51.508;7.966;2022-10-16T11:07:28;3.60;;;1.20;;
6105;SDS011;3083;51.508;7.966;2022-10-16T11:10:01;3.07;;;1.40;;
6105;SDS011;3083;51.508;7.966;2022-10-16T11:12:29;2.67;;;1.20;;
6105;SDS011;3083;51.508;7.966;2022-10-16T11:15:01;2.30;;;1.40;;
6105;SDS011;3083;51.508;7.966;2022-10-16T11:17:35;2.67;;;1.30;;
6105;SDS011;3083;51.508;7.966;2022-10-16T11:20:12;3.57;;;1.30;;
6105;SDS011;3083;51.508;7.966;2022-10-16T11:22:42;3.10;;;1.30;;
6105;SDS011;3083;51.508;7.966;2022-10-16T11:25:13;4.47;;;1.40;;
6105;SDS011;3083;51.508;7.966;2022-10-16T11:27:45;3.40;;;1.30;;
6105;SDS011;3083;51.508;7.966;2022-10-16T11:30:18;3.40;;;1.43;;
6105;SDS011;3083;51.508;7.966;2022-10-16T11:33:02;3.33;;;1.50;;
6105;SDS011;3083;51.508;7.966;2022-10-16T11:35:39;2.87;;;1.47;;
6105;SDS011;3083;51.508;7.966;2022-10-16T11:38:12;5.13;;;1.73;;
6105;SDS011;3083;51.508;7.966;2022-10-16T11:40:47;2.90;;;1.47;;
6105;SDS011;3083;51.508;7.966;2022-10-16T11:43:21;4.07;;;1.53;;
6105;SDS011;3083;51.508;7.966;2022-10-16T11:45:52;2.47;;;1.27;;
6105;SDS011;3083;51.508;7.966;2022-10-16T11:48:24;3.40;;;1.40;;
6105;SDS011;3083;51.508;7.966;2022-10-16T11:50:58;2.73;;;1.47;;
6105;SDS011;3083;51.508;7.966;2022-10-16T11:53:37;3.60;;;1.20;;
6105;SDS011;3083;51.508;7.966;2022-10-16T11:56:11;3.50;;;1.50;;
6105;SDS011;3083;51.508;7.966;2022-10-16T11:58:41;5.47;;;1.60;;
6105;SDS011;3083;51.508;7.966;2022-10-16T12:01:18;2.53;;;1.50;;
6105;SDS011;3083;51.508;7.966;2022-10-16T12:03:56;3.03;;;1.40;;
6105;SDS011;3083;51.508;7.966;2022-10-16T12:06:33;3.00;;;1.30;;
6105;SDS011;3083;51.508;7.966;2022-10-16T12:09:03;3.27;;;1.40;;
6105;SDS011;3083;51.508;7.966;2022-10-16T12:11:32;2.93;;;1.53;;
6105;SDS011;3083;51.508;7.966;2022-10-16T12:14:04;8.33;;;1.60;;
6105;SDS011;3083;51.508;7.966;2022-10-16T12:16:34;3.77;;;1.40;;
6105;SDS011;3083;51.508;7.966;2022-10-16T12:19:10;4.90;;;1.40;;
6105;SDS011;3083;51.508;7.966;2022-10-16T12:21:40;2.50;;;1.33;;
6105;SDS011;3083;51.508;7.966;2022-10-16T12:24:18;5.03;;;1.30;;
6105;SDS011;3083;51.508;7.966;2022-10-16T12:26:48;2.60;;;1.20;;
6105;SDS011;3083;51.508;7.966;2022-10-16T12:29:22;5.63;;;1.43;;
6105;SDS011;3083;51.508;7.966;2022-10-16T12:31:55;2.20;;;1.30;;
6105;SDS011;3083;51.508;7.966;2022-10-16T12:34:22;2.20;;;1.20;;
6105;SDS011;3083;51.508;7.966;2022-10-16T12:36:55;2.53;;;1.30;;
6105;SDS011;3083;51.508;7.966;2022-10-16T12:39:33;4.10;;;1.40;;
6105;SDS011;3083;51.508;7.966;2022-10-16T12:42:02;4.63;;;1.50;;
6105;SDS011;3083;51.508;7.966;2022-10-16T12:44:34;2.50;;;1.20;;
6105;SDS011;3083;51.508;7.966;2022-10-16T12:47:01;2.90;;;1.20;;
6105;SDS011;3083;51.508;7.966;2022-10-16T12:49:30;5.80;;;1.30;;
6105;SDS011;3083;51.508;7.966;2022-10-16T12:51:59;2.67;;;1.30;;
6105;SDS011;3083;51.508;7.966;2022-10-16T12:54:27;3.50;;;1.40;;
6105;SDS011;3083;51.508;7.966;2022-10-16T12:57:00;3.23;;;1.20;;
6105;SDS011;3083;51.508;7.966;2022-10-16T12:59:42;3.03;;;1.30;;
6105;SDS011;3083;51.508;7.966;2022-10-16T13:02:20;3.13;;;1.50;;
6105;SDS011;3083;51.508;7.966;2022-10-16T13:11:08;3.10;;;1.20;;
6105;SDS011;3083;51.508;7.966;2022-10-16T13:16:46;3.80;;;1.70;;
6105;SDS011;3083;51.508;7.966;2022-10-16T13:19:21;4.20;;;1.40;;
6105;SDS011;3083;51.508;7.966;2022-10-16T13:21:56;3.17;;;1.30;;
6105;SDS011;3083;51.508;7.966;2022-10-16T13:24:39;2.40;;;1.23;;
6105;SDS011;3083;51.508;7.966;2022-10-16T13:27:25;2.70;;;1.17;;
6105;SDS011;3083;51.508;7.966;2022-10-16T13:30:02;3.30;;;1.20;;
6105;SDS011;3083;51.508;7.966;2022-10-16T13:32:38;3.20;;;1.13;;
6105;SDS011;3083;51.508;7.966;2022-10-16T13:35:18;2.57;;;1.20;;
6105;SDS011;3083;51.508;7.966;2022-10-16T13:37:46;3.63;;;1.33;;
6105;SDS011;3083;51.508;7.966;2022-10-16T13:40:19;3.10;;;1.47;;
6105;SDS011;3083;51.508;7.966;2022-10-16T13:42:48;2.93;;;1.30;;
6105;SDS011;3083;51.508;7.966;2022-10-16T13:45:18;3.50;;;1.30;;
6105;SDS011;3083;51.508;7.966;2022-10-16T13:47:46;2.17;;;1.20;;
6105;SDS011;3083;51.508;7.966;2022-10-16T13:50:15;2.40;;;1.20;;
6105;SDS011;3083;51.508;7.966;2022-10-16T13:52:43;2.20;;;1.10;;
6105;SDS011;3083;51.508;7.966;2022-10-16T13:55:11;2.53;;;1.23;;
6105;SDS011;3083;51.508;7.966;2022-10-16T13:57:39;3.40;;;1.20;;
6105;SDS011;3083;51.508;7.966;2022-10-16T14:02:50;2.37;;;1.10;;
6105;SDS011;3083;51.508;7.966;2022-10-16T14:05:21;2.97;;;1.20;;
6105;SDS011;3083;51.508;7.966;2022-10-16T14:07:48;3.40;;;1.33;;
6105;SDS011;3083;51.508;7.966;2022-10-16T14:10:22;3.60;;;1.27;;
6105;SDS011;3083;51.508;7.966;2022-10-16T14:12:56;4.47;;;1.30;;
6105;SDS011;3083;51.508;7.966;2022-10-16T14:15:24;3.47;;;1.10;;
6105;SDS011;3083;51.508;7.966;2022-10-16T14:17:51;3.17;;;1.33;;
6105;SDS011;3083;51.508;7.966;2022-10-16T14:20:20;3.97;;;1.50;;
6105;SDS011;3083;51.508;7.966;2022-10-16T14:22:57;4.10;;;1.30;;
6105;SDS011;3083;51.508;7.966;2022-10-16T14:25:27;4.90;;;1.60;;
6105;SDS011;3083;51.508;7.966;2022-10-16T14:27:58;4.23;;;1.60;;
6105;SDS011;3083;51.508;7.966;2022-10-16T14:30:27;5.00;;;1.40;;
6105;SDS011;3083;51.508;7.966;2022-10-16T14:32:55;2.50;;;1.60;;
6105;SDS011;3083;51.508;7.966;2022-10-16T14:35:25;3.70;;;1.20;;
6105;SDS011;3083;51.508;7.966;2022-10-16T14:37:55;5.83;;;1.30;;
6105;SDS011;3083;51.508;7.966;2022-10-16T14:40:24;2.80;;;1.10;;
6105;SDS011;3083;51.508;7.966;2022-10-16T14:42:52;2.30;;;1.40;;
6105;SDS011;3083;51.508;7.966;2022-10-16T14:45:21;5.40;;;1.20;;
6105;SDS011;3083;51.508;7.966;2022-10-16T14:47:50;2.80;;;1.40;;
6105;SDS011;3083;51.508;7.966;2022-10-16T14:50:19;2.53;;;1.30;;
6105;SDS011;3083;51.508;7.966;2022-10-16T14:52:46;4.67;;;1.57;;
6105;SDS011;3083;51.508;7.966;2022-10-16T14:55:14;2.80;;;1.30;;
6105;SDS011;3083;51.508;7.966;2022-10-16T14:57:42;2.73;;;1.10;;
6105;SDS011;3083;51.508;7.966;2022-10-16T15:00:13;2.70;;;1.43;;
6105;SDS011;3083;51.508;7.966;2022-10-16T15:02:45;3.43;;;1.40;;
6105;SDS011;3083;51.508;7.966;2022-10-16T15:05:16;3.57;;;1.40;;
6105;SDS011;3083;51.508;7.966;2022-10-16T15:07:44;4.10;;;1.67;;
6105;SDS011;3083;51.508;7.966;2022-10-16T15:10:12;4.40;;;1.70;;
6105;SDS011;3083;51.508;7.966;2022-10-16T15:12:39;3.00;;;1.40;;
6105;SDS011;3083;51.508;7.966;2022-10-16T15:15:15;2.20;;;1.30;;
6105;SDS011;3083;51.508;7.966;2022-10-16T15:17:53;5.23;;;1.30;;
6105;SDS011;3083;51.508;7.966;2022-10-16T15:20:22;2.70;;;1.40;;
6105;SDS011;3083;51.508;7.966;2022-10-16T15:22:49;6.10;;;1.30;;
6105;SDS011;3083;51.508;7.966;2022-10-16T15:25:25;3.27;;;1.50;;
6105;SDS011;3083;51.508;7.966;2022-10-16T15:27:56;3.33;;;1.50;;
6105;SDS011;3083;51.508;7.966;2022-10-16T15:30:24;3.47;;;1.60;;
6105;SDS011;3083;51.508;7.966;2022-10-16T15:32:52;3.07;;;1.47;;
6105;SDS011;3083;51.508;7.966;2022-10-16T15:35:19;2.70;;;1.70;;
6105;SDS011;3083;51.508;7.966;2022-10-16T15:37:47;2.50;;;1.60;;
6105;SDS011;3083;51.508;7.966;2022-10-16T15:40:15;3.33;;;1.53;;
6105;SDS011;3083;51.508;7.966;2022-10-16T15:42:42;3.10;;;1.70;;
6105;SDS011;3083;51.508;7.966;2022-10-16T15:45:09;5.80;;;1.90;;
6105;SDS011;3083;51.508;7.966;2022-10-16T15:47:37;4.97;;;1.70;;
6105;SDS011;3083;51.508;7.966;2022-10-16T15:50:06;3.80;;;1.50;;
6105;SDS011;3083;51.508;7.966;2022-10-16T15:52:33;3.20;;;1.57;;
6105;SDS011;3083;51.508;7.966;2022-10-16T15:55:00;3.23;;;1.70;;